createdAt,value
2023-05-19T00:01:22.526Z,2.45
2023-05-19T00:03:55.259Z,2.58
2023-05-19T00:06:32.860Z,2.60
2023-05-19T00:09:01.743Z,2.78
2023-05-19T00:11:30.216Z,2.97
2023-05-19T00:13:59.286Z,2.60
2023-05-19T00:16:28.295Z,2.53
2023-05-19T00:18:55.281Z,2.45
2023-05-19T00:21:22.350Z,2.65
2023-05-19T00:23:49.444Z,2.40
2023-05-19T00:26:16.672Z,2.65
2023-05-19T00:28:44.922Z,2.50
2023-05-19T00:31:12.019Z,2.50
2023-05-19T00:33:39.274Z,2.42
2023-05-19T00:36:06.488Z,2.65
2023-05-19T00:38:35.059Z,2.90
2023-05-19T00:41:03.591Z,2.83
2023-05-19T00:43:30.968Z,2.65
2023-05-19T00:45:58.235Z,2.67
2023-05-19T00:48:28.879Z,2.78
2023-05-19T00:51:04.478Z,2.45
2023-05-19T00:53:33.496Z,2.92
2023-05-19T00:56:01.701Z,2.75
2023-05-19T00:58:33.048Z,2.97
2023-05-19T01:01:04.920Z,2.88
2023-05-19T01:03:33.228Z,3.30
2023-05-19T01:06:07.635Z,2.80
2023-05-19T01:08:38.543Z,2.50
2023-05-19T01:11:06.928Z,2.80
2023-05-19T01:13:35.736Z,2.50
2023-05-19T01:16:25.281Z,2.50
2023-05-19T01:19:23.325Z,2.60
2023-05-19T01:21:58.897Z,2.67
2023-05-19T01:24:32.379Z,2.78
2023-05-19T01:27:07.911Z,2.90
2023-05-19T01:30:13.141Z,2.38
2023-05-19T01:32:42.236Z,2.72
2023-05-19T01:35:11.068Z,2.90
2023-05-19T01:37:39.742Z,2.75
2023-05-19T01:40:11.238Z,2.80
2023-05-19T01:42:42.652Z,2.70
2023-05-19T01:45:10.796Z,2.58
2023-05-19T01:47:42.803Z,2.80
2023-05-19T01:50:11.248Z,2.83
2023-05-19T01:52:38.312Z,2.85
2023-05-19T01:55:06.460Z,2.90
2023-05-19T01:57:51.330Z,2.90
2023-05-19T02:00:30.048Z,2.60
2023-05-19T02:03:18.600Z,2.65
2023-05-19T02:06:13.708Z,2.50
2023-05-19T02:08:50.601Z,2.67
2023-05-19T02:11:29.557Z,2.80
2023-05-19T02:13:59.990Z,2.78
2023-05-19T02:16:29.561Z,2.70
2023-05-19T02:18:57.558Z,2.88
2023-05-19T02:21:24.409Z,2.83
2023-05-19T02:23:51.660Z,2.92
2023-05-19T02:26:18.427Z,2.90
2023-05-19T02:28:48.063Z,2.88
2023-05-19T02:31:16.218Z,2.80
2023-05-19T02:33:43.352Z,2.80
2023-05-19T02:36:10.441Z,2.75
2023-05-19T02:38:37.792Z,2.80
2023-05-19T02:41:04.724Z,2.83
2023-05-19T02:43:31.644Z,2.80
2023-05-19T02:45:58.463Z,2.80
2023-05-19T02:48:25.452Z,3.05
2023-05-19T02:50:52.411Z,2.60
2023-05-19T02:53:19.227Z,2.55
2023-05-19T02:55:47.835Z,2.83
2023-05-19T02:58:14.646Z,2.80
2023-05-19T03:00:41.433Z,2.92
2023-05-19T03:03:10.359Z,2.75
2023-05-19T03:05:37.263Z,2.45
2023-05-19T03:08:05.328Z,2.70
2023-05-19T03:10:32.363Z,2.30
2023-05-19T03:12:59.338Z,2.05
2023-05-19T03:15:28.566Z,2.38
2023-05-19T03:17:55.922Z,2.30
2023-05-19T03:20:22.917Z,2.13
2023-05-19T03:22:50.990Z,2.50
2023-05-19T03:25:19.898Z,2.53
2023-05-19T03:27:46.737Z,2.20
2023-05-19T03:30:13.939Z,2.72
2023-05-19T03:32:40.697Z,2.60
2023-05-19T03:35:07.874Z,2.80
2023-05-19T03:37:34.917Z,3.17
2023-05-19T03:40:02.702Z,2.97
2023-05-19T03:42:29.578Z,3.00
2023-05-19T03:44:56.526Z,2.92
2023-05-19T03:47:23.426Z,2.85
2023-05-19T03:49:51.905Z,2.97
2023-05-19T03:52:19.194Z,3.03
2023-05-19T03:54:46.244Z,2.70
2023-05-19T03:57:16.370Z,3.10
2023-05-19T03:59:44.019Z,2.97
2023-05-19T04:02:11.171Z,2.97
2023-05-19T04:04:38.218Z,2.78
2023-05-19T04:07:05.223Z,3.00
2023-05-19T04:09:35.197Z,3.00
2023-05-19T04:12:03.059Z,3.10
2023-05-19T04:14:30.337Z,3.20
2023-05-19T04:16:57.602Z,3.20
2023-05-19T04:19:24.602Z,3.13
2023-05-19T04:21:51.817Z,2.92
2023-05-19T04:24:19.275Z,3.15
2023-05-19T04:26:47.284Z,3.20
2023-05-19T04:29:18.265Z,2.92
2023-05-19T04:31:45.758Z,3.22
2023-05-19T04:34:14.213Z,3.40
2023-05-19T04:36:42.449Z,3.13
2023-05-19T04:39:10.177Z,2.90
2023-05-19T04:41:40.357Z,3.30
2023-05-19T04:44:08.983Z,3.17
2023-05-19T04:46:37.082Z,3.33
2023-05-19T04:49:05.030Z,3.45
2023-05-19T04:51:32.205Z,3.25
2023-05-19T04:53:59.407Z,3.20
2023-05-19T04:56:27.686Z,3.85
2023-05-19T04:58:54.701Z,3.50
2023-05-19T05:01:25.941Z,3.40
2023-05-19T05:03:59.053Z,3.70
2023-05-19T05:06:26.651Z,3.63
2023-05-19T05:08:53.972Z,3.45
2023-05-19T05:11:21.992Z,3.42
2023-05-19T05:13:49.374Z,3.20
2023-05-19T05:16:16.923Z,3.70
2023-05-19T05:18:45.005Z,3.70
2023-05-19T05:21:12.563Z,3.45
2023-05-19T05:23:39.657Z,3.67
2023-05-19T05:26:14.194Z,3.65
2023-05-19T05:28:42.949Z,4.00
2023-05-19T05:31:09.937Z,4.10
2023-05-19T05:33:38.786Z,4.05
2023-05-19T05:36:05.900Z,4.47
2023-05-19T05:38:32.904Z,4.18
2023-05-19T05:41:00.660Z,4.18
2023-05-19T05:43:27.537Z,4.57
2023-05-19T05:45:54.515Z,4.57
2023-05-19T05:48:21.841Z,4.55
2023-05-19T05:50:50.329Z,4.93
2023-05-19T05:53:19.772Z,4.40
2023-05-19T05:55:50.207Z,4.50
2023-05-19T05:58:17.161Z,4.75
2023-05-19T06:00:44.149Z,4.88
2023-05-19T06:03:11.584Z,5.03
2023-05-19T06:05:38.792Z,4.68
2023-05-19T06:08:06.210Z,4.40
2023-05-19T06:10:33.748Z,4.70
2023-05-19T06:13:01.300Z,4.85
2023-05-19T06:15:28.285Z,4.97
2023-05-19T06:17:55.296Z,4.93
2023-05-19T06:20:22.359Z,4.93
2023-05-19T06:22:50.357Z,4.65
2023-05-19T06:25:17.391Z,4.55
2023-05-19T06:27:46.841Z,4.78
2023-05-19T06:30:15.478Z,4.50
2023-05-19T06:32:42.453Z,4.85
2023-05-19T06:35:09.592Z,4.65
2023-05-19T06:37:36.623Z,5.18
2023-05-19T06:40:03.981Z,4.70
2023-05-19T06:42:31.236Z,4.57
2023-05-19T06:44:58.446Z,4.97
2023-05-19T06:47:26.312Z,5.03
2023-05-19T06:49:56.981Z,4.40
2023-05-19T06:52:24.798Z,4.63
2023-05-19T06:54:53.212Z,4.40
2023-05-19T06:57:19.976Z,4.15
2023-05-19T06:59:46.825Z,4.05
2023-05-19T07:02:14.908Z,4.38
2023-05-19T07:04:43.075Z,4.57
2023-05-19T07:07:10.154Z,4.20
2023-05-19T07:09:37.005Z,4.03
2023-05-19T07:12:03.940Z,4.40
2023-05-19T07:14:31.193Z,3.88
2023-05-19T07:16:57.982Z,3.90
2023-05-19T07:19:25.099Z,3.72
2023-05-19T07:21:52.197Z,3.30
2023-05-19T07:24:21.469Z,3.90
2023-05-19T07:26:48.427Z,3.70
2023-05-19T07:29:16.724Z,3.65
2023-05-19T07:31:43.795Z,3.78
2023-05-19T07:34:10.671Z,3.55
2023-05-19T07:36:40.098Z,3.05
2023-05-19T07:39:06.950Z,3.30
2023-05-19T07:41:34.461Z,3.10
2023-05-19T07:44:07.627Z,3.10
2023-05-19T07:46:35.676Z,2.80
2023-05-19T07:49:02.862Z,2.70
2023-05-19T07:51:29.711Z,2.75
2023-05-19T07:53:59.481Z,3.00
2023-05-19T07:56:26.310Z,2.72
2023-05-19T07:58:55.902Z,3.30
2023-05-19T08:01:22.703Z,2.88
2023-05-19T08:03:50.172Z,3.22
2023-05-19T08:06:17.216Z,2.90
2023-05-19T08:08:44.653Z,2.65
2023-05-19T08:11:12.011Z,2.78
2023-05-19T08:13:38.966Z,2.80
2023-05-19T08:16:06.474Z,2.90
2023-05-19T08:18:33.681Z,2.60
2023-05-19T08:21:00.548Z,2.35
2023-05-19T08:23:27.729Z,2.20
2023-05-19T08:25:54.631Z,2.28
2023-05-19T08:28:21.573Z,2.30
2023-05-19T08:30:48.612Z,2.10
2023-05-19T08:33:15.551Z,2.00
2023-05-19T08:35:43.280Z,2.25
2023-05-19T08:38:11.500Z,2.00
2023-05-19T08:40:41.720Z,2.20
2023-05-19T08:43:09.748Z,1.90
2023-05-19T08:45:38.843Z,2.08
2023-05-19T08:48:07.178Z,1.77
2023-05-19T08:50:39.354Z,1.98
2023-05-19T08:53:32.437Z,2.00
2023-05-19T08:56:04.218Z,1.75
2023-05-19T08:58:33.960Z,2.25
2023-05-19T09:01:03.339Z,1.85
2023-05-19T09:03:30.627Z,2.03
2023-05-19T09:05:57.881Z,1.65
2023-05-19T09:08:24.981Z,1.90
2023-05-19T09:10:53.345Z,1.90
2023-05-19T09:13:20.862Z,1.75
2023-05-19T09:15:50.305Z,2.17
2023-05-19T09:18:17.220Z,1.98
2023-05-19T09:20:46.238Z,1.50
2023-05-19T09:23:17.645Z,1.80
2023-05-19T09:25:52.144Z,1.45
2023-05-19T09:28:35.680Z,2.22
2023-05-19T09:31:09.623Z,1.90
2023-05-19T09:33:42.885Z,1.77
2023-05-19T09:36:11.586Z,2.03
2023-05-19T09:38:39.709Z,2.05
2023-05-19T09:41:07.658Z,2.00
2023-05-19T09:43:35.755Z,2.10
2023-05-19T09:46:14.318Z,2.10
2023-05-19T09:48:42.683Z,2.08
2023-05-19T09:51:12.300Z,2.15
2023-05-19T09:53:39.514Z,2.00
2023-05-19T09:56:08.760Z,1.80
2023-05-19T09:58:36.825Z,2.17
2023-05-19T10:01:04.908Z,2.10
2023-05-19T10:03:34.772Z,2.13
2023-05-19T10:06:02.300Z,1.92
2023-05-19T10:08:31.005Z,2.10
2023-05-19T10:10:59.149Z,1.90
2023-05-19T10:13:27.109Z,1.80
2023-05-19T10:15:58.651Z,2.05
2023-05-19T10:18:29.560Z,1.75
2023-05-19T10:20:59.024Z,2.20
2023-05-19T10:23:26.588Z,2.20
2023-05-19T10:25:56.585Z,1.80
2023-05-19T10:28:28.404Z,2.10
2023-05-19T10:30:59.887Z,1.98
2023-05-19T10:33:50.574Z,2.20
2023-05-19T10:36:47.736Z,1.95
2023-05-19T10:39:19.601Z,1.80
2023-05-19T10:42:16.102Z,1.90
2023-05-19T10:44:57.226Z,2.20
2023-05-19T10:47:27.427Z,2.03
2023-05-19T10:49:54.738Z,1.90
2023-05-19T10:52:30.066Z,2.08
2023-05-19T10:54:58.696Z,2.00
2023-05-19T10:57:32.200Z,2.30
2023-05-19T11:00:11.749Z,2.05
2023-05-19T11:02:43.353Z,1.80
2023-05-19T11:05:12.881Z,2.00
2023-05-19T11:07:42.642Z,2.00
2023-05-19T11:10:10.811Z,2.20
2023-05-19T11:12:43.191Z,1.90
2023-05-19T11:15:15.504Z,1.92
2023-05-19T11:17:45.764Z,1.90
2023-05-19T11:20:27.486Z,1.70
2023-05-19T11:23:10.479Z,2.15
2023-05-19T11:25:46.965Z,2.00
2023-05-19T11:28:20.609Z,1.83
2023-05-19T11:30:51.984Z,1.80
2023-05-19T11:35:49.767Z,1.85
2023-05-19T11:38:20.629Z,1.85
2023-05-19T11:40:49.858Z,2.20
2023-05-19T11:43:16.800Z,1.95
2023-05-19T11:45:44.602Z,2.00
2023-05-19T11:48:12.808Z,1.80
2023-05-19T11:50:44.222Z,2.10
2023-05-19T11:53:15.860Z,2.20
2023-05-19T11:55:48.230Z,2.00
2023-05-19T11:58:17.560Z,1.85
2023-05-19T12:00:47.712Z,1.90
2023-05-19T12:03:15.184Z,2.00
2023-05-19T12:05:46.072Z,1.80
2023-05-19T12:08:14.636Z,1.65
2023-05-19T12:10:41.684Z,1.80
2023-05-19T12:13:09.808Z,1.73
2023-05-19T12:15:37.478Z,1.85
2023-05-19T12:18:04.578Z,2.03
2023-05-19T12:20:32.887Z,1.45
2023-05-19T12:23:01.288Z,1.80
2023-05-19T12:25:29.560Z,1.85
2023-05-19T12:28:04.010Z,1.90
2023-05-19T12:30:32.534Z,1.90
2023-05-19T12:33:01.827Z,1.70
2023-05-19T12:35:37.013Z,1.85
2023-05-19T12:38:07.566Z,1.77
2023-05-19T12:40:36.156Z,1.83
2023-05-19T12:43:04.046Z,1.70
2023-05-19T12:45:35.242Z,1.67
2023-05-19T12:48:06.757Z,1.88
2023-05-19T12:53:02.088Z,1.70
2023-05-19T12:55:29.584Z,1.80
2023-05-19T12:57:58.469Z,2.13
2023-05-19T13:00:30.983Z,1.67
2023-05-19T13:03:02.233Z,1.95
2023-05-19T13:05:30.690Z,1.80
2023-05-19T13:07:59.919Z,2.10
2023-05-19T13:10:27.781Z,1.70
2023-05-19T13:12:56.233Z,1.90
2023-05-19T13:15:25.090Z,2.00
2023-05-19T13:17:53.045Z,2.00
2023-05-19T13:20:21.631Z,1.83
2023-05-19T13:22:49.162Z,1.90
2023-05-19T13:25:16.889Z,1.98
2023-05-19T13:27:48.088Z,2.10
2023-05-19T13:30:18.598Z,2.20
2023-05-19T13:32:46.039Z,2.10
2023-05-19T13:35:14.588Z,2.00
2023-05-19T13:37:44.842Z,2.28
2023-05-19T13:40:12.288Z,2.08
2023-05-19T13:42:39.399Z,1.75
2023-05-19T13:45:06.754Z,2.20
2023-05-19T13:47:33.829Z,1.77
2023-05-19T13:50:00.699Z,1.65
2023-05-19T13:52:29.715Z,1.83
2023-05-19T13:54:57.319Z,1.83
2023-05-19T13:57:25.424Z,1.92
2023-05-19T14:00:01.522Z,1.98
2023-05-19T14:02:30.326Z,1.80
2023-05-19T14:04:57.689Z,1.80
2023-05-19T14:07:25.466Z,2.20
2023-05-19T14:09:52.639Z,1.60
2023-05-19T14:12:23.188Z,2.05
2023-05-19T14:14:50.474Z,1.73
2023-05-19T14:17:17.419Z,1.65
2023-05-19T14:19:44.415Z,1.65
2023-05-19T14:22:13.269Z,2.00
2023-05-19T14:24:40.072Z,1.90
2023-05-19T14:27:06.991Z,1.90
2023-05-19T14:29:34.138Z,2.00
2023-05-19T14:32:01.002Z,1.75
2023-05-19T14:34:28.366Z,1.90
2023-05-19T14:36:55.180Z,1.77
2023-05-19T14:39:22.281Z,1.70
2023-05-19T14:41:51.093Z,2.15
2023-05-19T14:44:17.909Z,1.67
2023-05-19T14:46:44.967Z,1.80
2023-05-19T14:49:11.917Z,1.88
2023-05-19T14:51:38.692Z,1.95
2023-05-19T14:54:05.650Z,1.90
2023-05-19T14:56:32.540Z,1.52
2023-05-19T14:58:59.431Z,1.83
2023-05-19T15:01:26.704Z,2.00
2023-05-19T15:03:53.676Z,1.90
2023-05-19T15:06:20.619Z,1.90
2023-05-19T15:08:47.722Z,1.70
2023-05-19T15:11:14.563Z,2.03
2023-05-19T15:13:41.224Z,1.60
2023-05-19T15:16:17.718Z,1.70
2023-05-19T15:18:45.608Z,2.10
2023-05-19T15:21:12.890Z,1.88
2023-05-19T15:23:39.742Z,2.00
2023-05-19T15:26:07.301Z,2.00
2023-05-19T15:28:34.356Z,1.80
2023-05-19T15:31:01.465Z,1.83
2023-05-19T15:33:28.616Z,1.63
2023-05-19T15:35:55.590Z,1.85
2023-05-19T15:38:22.680Z,2.08
2023-05-19T15:40:49.624Z,1.90
2023-05-19T15:43:17.396Z,1.60
2023-05-19T15:45:44.177Z,1.73
2023-05-19T15:48:11.652Z,1.65
2023-05-19T15:50:38.974Z,2.05
2023-05-19T15:53:07.784Z,2.10
2023-05-19T15:55:36.167Z,2.00
2023-05-19T15:58:04.319Z,2.00
2023-05-19T16:00:31.263Z,2.00
2023-05-19T16:02:58.017Z,1.63
2023-05-19T16:05:25.280Z,1.73
2023-05-19T16:07:52.593Z,2.28
2023-05-19T16:10:19.432Z,1.98
2023-05-19T16:12:46.231Z,1.88
2023-05-19T16:15:12.995Z,1.83
2023-05-19T16:17:40.108Z,1.90
2023-05-19T16:20:09.787Z,2.22
2023-05-19T16:22:36.463Z,1.98
2023-05-19T16:25:03.379Z,2.00
2023-05-19T16:27:30.160Z,1.90
2023-05-19T16:29:57.179Z,1.95
2023-05-19T16:32:23.979Z,2.20
2023-05-19T16:34:50.734Z,2.10
2023-05-19T16:37:17.947Z,1.95
2023-05-19T16:39:45.029Z,1.92
2023-05-19T16:42:11.993Z,1.95
2023-05-19T16:44:38.965Z,1.98
2023-05-19T16:47:05.915Z,2.05
2023-05-19T16:49:33.553Z,2.20
2023-05-19T16:52:00.595Z,1.90
2023-05-19T16:54:28.952Z,1.95
2023-05-19T16:56:55.802Z,2.13
2023-05-19T16:59:22.693Z,1.73
2023-05-19T17:01:50.127Z,1.98
2023-05-19T17:04:17.045Z,2.00
2023-05-19T17:06:46.394Z,1.95
2023-05-19T17:09:13.384Z,2.10
2023-05-19T17:11:40.375Z,1.98
2023-05-19T17:14:10.254Z,1.73
2023-05-19T17:16:37.756Z,2.20
2023-05-19T17:19:04.718Z,1.98
2023-05-19T17:21:31.907Z,1.65
2023-05-19T17:23:58.690Z,1.73
2023-05-19T17:26:25.682Z,1.73
2023-05-19T17:28:52.583Z,1.90
2023-05-19T17:31:19.470Z,2.10
2023-05-19T17:33:46.724Z,1.90
2023-05-19T17:36:14.493Z,1.85
2023-05-19T17:38:42.055Z,2.10
2023-05-19T17:41:14.014Z,1.63
2023-05-19T17:43:41.542Z,1.85
2023-05-19T17:46:09.056Z,2.03
2023-05-19T17:48:36.457Z,1.98
2023-05-19T17:51:05.794Z,2.00
2023-05-19T17:53:33.642Z,1.88
2023-05-19T17:56:02.592Z,1.70
2023-05-19T17:58:29.901Z,1.80
2023-05-19T18:00:57.057Z,1.95
2023-05-19T18:03:24.246Z,2.00
2023-05-19T18:05:53.938Z,1.85
2023-05-19T18:08:21.057Z,1.90
2023-05-19T18:10:51.218Z,1.90
2023-05-19T18:13:19.094Z,2.00
2023-05-19T18:15:46.207Z,1.77
2023-05-19T18:18:13.090Z,1.75
2023-05-19T18:20:45.069Z,1.90
2023-05-19T18:23:12.490Z,1.70
2023-05-19T18:25:39.355Z,1.88
2023-05-19T18:28:06.196Z,1.88
2023-05-19T18:30:33.076Z,1.60
2023-05-19T18:33:03.584Z,1.73
2023-05-19T18:35:30.925Z,1.90
2023-05-19T18:37:57.937Z,1.92
2023-05-19T18:40:24.865Z,1.63
2023-05-19T18:42:52.127Z,1.70
2023-05-19T18:45:19.018Z,1.90
2023-05-19T18:47:46.523Z,1.60
2023-05-19T18:50:14.246Z,1.60
2023-05-19T18:52:41.052Z,1.90
2023-05-19T18:55:08.222Z,2.00
2023-05-19T18:57:36.053Z,1.70
2023-05-19T19:00:03.961Z,1.80
2023-05-19T19:02:31.352Z,2.10
2023-05-19T19:04:58.430Z,1.75
2023-05-19T19:07:27.300Z,1.80
2023-05-19T19:09:54.216Z,1.70
2023-05-19T19:12:21.101Z,1.80
2023-05-19T19:14:48.162Z,2.00
2023-05-19T19:17:15.111Z,1.88
2023-05-19T19:19:42.181Z,2.20
2023-05-19T19:22:09.381Z,1.88
2023-05-19T19:24:36.337Z,1.85
2023-05-19T19:27:03.901Z,1.88
2023-05-19T19:29:30.884Z,1.50
2023-05-19T19:31:57.777Z,1.60
2023-05-19T19:34:24.774Z,1.73
2023-05-19T19:36:52.084Z,1.83
2023-05-19T19:39:19.182Z,1.55
2023-05-19T19:41:47.296Z,1.80
2023-05-19T19:44:14.173Z,1.90
2023-05-19T19:46:42.725Z,1.92
2023-05-19T19:49:09.776Z,1.90
2023-05-19T19:51:36.530Z,2.10
2023-05-19T19:54:05.424Z,1.92
2023-05-19T19:56:33.375Z,1.85
2023-05-19T19:59:01.537Z,2.05
2023-05-19T20:01:28.424Z,2.10
2023-05-19T20:03:57.230Z,1.80
2023-05-19T20:06:24.135Z,2.20
2023-05-19T20:08:54.036Z,1.90
2023-05-19T20:11:22.969Z,2.20
2023-05-19T20:13:49.773Z,1.90
2023-05-19T20:16:17.393Z,1.80
2023-05-19T20:18:47.102Z,2.03
2023-05-19T20:21:13.837Z,1.77
2023-05-19T20:23:40.817Z,1.45
2023-05-19T20:26:12.458Z,1.90
2023-05-19T20:28:40.476Z,1.85
2023-05-19T20:31:07.632Z,1.77
2023-05-19T20:33:35.219Z,2.20
2023-05-19T20:36:02.084Z,1.95
2023-05-19T20:38:30.234Z,1.95
2023-05-19T20:40:57.177Z,2.05
2023-05-19T20:43:24.126Z,2.30
2023-05-19T20:45:51.540Z,2.10
2023-05-19T20:48:18.601Z,2.38
2023-05-19T20:50:45.841Z,2.33
2023-05-19T20:53:12.727Z,2.60
2023-05-19T20:55:39.578Z,2.33
2023-05-19T20:58:07.241Z,2.50
2023-05-19T21:00:34.211Z,2.45
2023-05-19T21:03:01.846Z,2.58
2023-05-19T21:05:30.333Z,2.78
2023-05-19T21:07:57.330Z,2.22
2023-05-19T21:10:26.849Z,2.92
2023-05-19T21:12:53.790Z,2.70
2023-05-19T21:15:20.998Z,2.80
2023-05-19T21:17:48.023Z,2.80
2023-05-19T21:20:14.915Z,2.70
2023-05-19T21:22:41.849Z,2.67
2023-05-19T21:25:09.214Z,2.55
2023-05-19T21:27:36.537Z,2.60
2023-05-19T21:30:03.606Z,2.60
2023-05-19T21:32:30.677Z,2.75
2023-05-19T21:34:58.733Z,2.67
2023-05-19T21:37:28.275Z,2.70
2023-05-19T21:39:55.159Z,2.33
2023-05-19T21:42:22.090Z,2.58
2023-05-19T21:44:49.387Z,2.75
2023-05-19T21:47:16.282Z,2.45
2023-05-19T21:49:43.172Z,2.40
2023-05-19T21:52:10.640Z,2.47
2023-05-19T21:54:37.519Z,2.85
2023-05-19T21:57:04.572Z,2.53
2023-05-19T21:59:32.795Z,2.40
2023-05-19T22:01:59.937Z,2.33
2023-05-19T22:04:27.507Z,2.30
2023-05-19T22:06:54.394Z,2.33
2023-05-19T22:09:21.806Z,2.45
2023-05-19T22:11:48.701Z,2.58
2023-05-19T22:14:15.908Z,2.40
2023-05-19T22:16:42.876Z,2.30
2023-05-19T22:19:10.958Z,2.60
2023-05-19T22:21:38.021Z,2.72
2023-05-19T22:24:04.957Z,2.50
2023-05-19T22:26:32.060Z,2.45
2023-05-19T22:28:59.153Z,2.45
2023-05-19T22:31:26.045Z,2.30
2023-05-19T22:33:53.040Z,2.50
2023-05-19T22:36:20.087Z,2.40
2023-05-19T22:38:48.173Z,2.50
2023-05-19T22:41:14.960Z,2.30
2023-05-19T22:43:41.976Z,2.38
2023-05-19T22:46:08.961Z,2.70
2023-05-19T22:48:35.932Z,2.50
2023-05-19T22:51:05.754Z,3.00
2023-05-19T22:53:32.557Z,2.30
2023-05-19T22:55:59.383Z,2.47
2023-05-19T22:58:26.292Z,2.28
2023-05-19T23:00:53.367Z,2.67
2023-05-19T23:03:20.249Z,2.42
2023-05-19T23:05:47.273Z,2.40
2023-05-19T23:08:14.228Z,2.42
2023-05-19T23:10:40.913Z,2.30
2023-05-19T23:13:09.513Z,2.38
2023-05-19T23:15:36.530Z,2.50
2023-05-19T23:18:07.341Z,2.65
2023-05-19T23:20:35.086Z,2.55
2023-05-19T23:23:02.083Z,2.42
2023-05-19T23:25:29.077Z,2.47
2023-05-19T23:27:55.973Z,2.17
2023-05-19T23:30:22.817Z,2.50
2023-05-19T23:32:49.596Z,2.60
2023-05-19T23:35:17.292Z,2.42
2023-05-19T23:37:44.529Z,2.40
2023-05-19T23:40:12.059Z,2.50
2023-05-19T23:42:38.989Z,2.17
2023-05-19T23:45:06.532Z,2.60
2023-05-19T23:47:33.497Z,2.05
2023-05-19T23:50:01.456Z,2.63
2023-05-19T23:52:28.401Z,2.53
2023-05-19T23:54:56.631Z,2.60
2023-05-19T23:57:23.591Z,2.70
2023-05-19T23:59:50.427Z,2.78
